createdAt,value
2024-01-06T00:00:50.355Z,88.96
2024-01-06T00:03:22.027Z,88.90
2024-01-06T00:05:54.192Z,88.72
2024-01-06T00:08:24.706Z,88.60
2024-01-06T00:10:56.541Z,88.30
2024-01-06T00:13:29.112Z,88.40
2024-01-06T00:16:00.126Z,88.05
2024-01-06T00:18:32.183Z,88.17
2024-01-06T00:21:03.091Z,88.79
2024-01-06T00:23:33.607Z,88.15
2024-01-06T00:26:04.287Z,88.35
2024-01-06T00:28:34.976Z,88.43
2024-01-06T00:31:06.962Z,88.81
2024-01-06T00:33:37.601Z,88.18
2024-01-06T00:36:09.674Z,88.36
2024-01-06T00:38:40.235Z,88.14
2024-01-06T00:41:10.770Z,88.57
2024-01-06T00:43:42.610Z,88.26
2024-01-06T00:46:13.579Z,88.45
2024-01-06T00:48:44.719Z,88.54
2024-01-06T00:51:15.332Z,88.90
2024-01-06T00:53:46.902Z,88.75
2024-01-06T00:56:17.811Z,88.55
2024-01-06T00:58:48.345Z,88.80
2024-01-06T01:01:21.479Z,88.87
2024-01-06T01:03:51.180Z,89.02
2024-01-06T01:06:22.585Z,89.07
2024-01-06T01:08:53.129Z,89.17
2024-01-06T01:11:23.636Z,88.97
2024-01-06T01:13:54.393Z,89.14
2024-01-06T01:16:26.291Z,88.84
2024-01-06T01:18:56.946Z,88.92
2024-01-06T01:21:27.700Z,88.56
2024-01-06T01:23:58.353Z,88.55
2024-01-06T01:26:28.879Z,88.66
2024-01-06T01:28:59.580Z,88.34
2024-01-06T01:31:30.495Z,88.55
2024-01-06T01:34:01.198Z,88.12
2024-01-06T01:36:31.739Z,87.94
2024-01-06T01:39:02.283Z,88.53
2024-01-06T01:41:32.959Z,88.34
2024-01-06T01:44:03.624Z,88.58
2024-01-06T01:46:34.465Z,88.33
2024-01-06T01:49:05.372Z,88.81
2024-01-06T01:51:37.078Z,88.76
2024-01-06T01:54:08.920Z,88.36
2024-01-06T01:56:41.949Z,88.69
2024-01-06T01:59:15.332Z,88.79
2024-01-06T02:01:46.319Z,88.47
2024-01-06T02:04:17.024Z,88.72
2024-01-06T02:06:47.688Z,88.71
2024-01-06T02:09:18.387Z,88.58
2024-01-06T02:11:50.106Z,88.68
2024-01-06T02:14:20.799Z,89.15
2024-01-06T02:16:51.344Z,89.18
2024-01-06T02:19:22.116Z,88.87
2024-01-06T02:21:55.778Z,89.19
2024-01-06T02:24:26.409Z,88.80
2024-01-06T02:26:57.828Z,88.74
2024-01-06T02:29:28.281Z,88.83
2024-01-06T02:31:59.863Z,88.40
2024-01-06T02:34:31.917Z,88.40
2024-01-06T02:37:02.439Z,88.58
2024-01-06T02:39:32.974Z,87.95
2024-01-06T02:42:03.525Z,88.50
2024-01-06T02:44:34.052Z,88.40
2024-01-06T02:47:04.629Z,88.73
2024-01-06T02:49:35.305Z,88.37
2024-01-06T02:52:06.560Z,88.25
2024-01-06T02:54:37.145Z,88.72
2024-01-06T02:57:08.029Z,88.54
2024-01-06T02:59:38.591Z,88.64
2024-01-06T03:02:09.207Z,88.72
2024-01-06T03:04:39.708Z,88.81
2024-01-06T03:07:10.329Z,88.37
2024-01-06T03:09:41.043Z,88.29
2024-01-06T03:12:11.803Z,88.45
2024-01-06T03:14:42.301Z,88.51
2024-01-06T03:17:12.778Z,88.36
2024-01-06T03:19:43.536Z,88.35
2024-01-06T03:22:14.006Z,88.23
2024-01-06T03:24:44.598Z,88.51
2024-01-06T03:27:15.256Z,88.46
2024-01-06T03:29:46.814Z,88.33
2024-01-06T03:32:17.547Z,88.68
2024-01-06T03:34:48.199Z,88.35
2024-01-06T03:37:18.657Z,88.77
2024-01-06T03:39:49.258Z,88.36
2024-01-06T03:42:19.864Z,88.47
2024-01-06T03:44:50.448Z,88.35
2024-01-06T03:47:21.215Z,88.16
2024-01-06T03:49:51.883Z,88.48
2024-01-06T03:52:22.422Z,88.87
2024-01-06T03:54:53.008Z,88.41
2024-01-06T03:57:23.595Z,88.80
2024-01-06T03:59:54.475Z,88.78
2024-01-06T04:02:26.675Z,88.90
2024-01-06T04:04:57.176Z,88.81
2024-01-06T04:07:29.276Z,89.07
2024-01-06T04:10:00.173Z,89.03
2024-01-06T04:12:30.802Z,88.93
2024-01-06T04:15:01.272Z,88.81
2024-01-06T04:17:32.137Z,88.95
2024-01-06T04:20:02.587Z,88.74
2024-01-06T04:22:33.101Z,88.91
2024-01-06T04:25:03.657Z,88.82
2024-01-06T04:27:35.306Z,88.88
2024-01-06T04:30:06.317Z,88.86
2024-01-06T04:32:36.938Z,88.94
2024-01-06T04:35:07.878Z,88.63
2024-01-06T04:37:38.810Z,88.90
2024-01-06T04:40:09.675Z,89.03
2024-01-06T04:42:40.320Z,88.85
2024-01-06T04:45:11.376Z,89.11
2024-01-06T04:47:42.004Z,89.05
2024-01-06T04:50:12.618Z,89.07
2024-01-06T04:52:43.136Z,89.24
2024-01-06T04:55:13.638Z,89.29
2024-01-06T04:57:44.390Z,89.27
2024-01-06T05:00:15.882Z,89.43
2024-01-06T05:02:46.971Z,89.36
2024-01-06T05:05:17.505Z,89.15
2024-01-06T05:07:48.064Z,89.06
2024-01-06T05:10:18.886Z,89.34
2024-01-06T05:12:49.556Z,89.47
2024-01-06T05:15:20.558Z,89.41
2024-01-06T05:17:52.663Z,89.46
2024-01-06T05:20:23.239Z,88.76
2024-01-06T05:22:53.748Z,89.33
2024-01-06T05:25:24.207Z,89.11
2024-01-06T05:27:54.824Z,88.91
2024-01-06T05:30:25.487Z,89.06
2024-01-06T05:32:56.186Z,89.21
2024-01-06T05:35:26.841Z,89.28
2024-01-06T05:37:57.671Z,89.63
2024-01-06T05:40:28.098Z,89.85
2024-01-06T05:43:00.681Z,89.77
2024-01-06T05:45:31.560Z,89.46
2024-01-06T05:48:02.585Z,89.52
2024-01-06T05:50:33.121Z,89.53
2024-01-06T05:53:03.675Z,89.89
2024-01-06T05:55:34.915Z,89.88
2024-01-06T05:58:08.545Z,89.89
2024-01-06T06:00:39.739Z,89.88
2024-01-06T06:03:10.379Z,90.04
2024-01-06T06:05:40.913Z,89.60
2024-01-06T06:08:11.499Z,89.89
2024-01-06T06:10:43.748Z,89.95
2024-01-06T06:13:14.351Z,89.93
2024-01-06T06:15:44.996Z,90.10
2024-01-06T06:18:15.604Z,90.10
2024-01-06T06:20:46.167Z,90.04
2024-01-06T06:23:16.656Z,89.73
2024-01-06T06:25:47.140Z,89.55
2024-01-06T06:28:17.637Z,89.76
2024-01-06T06:30:48.399Z,89.71
2024-01-06T06:33:19.021Z,89.79
2024-01-06T06:35:49.710Z,89.67
2024-01-06T06:38:20.307Z,89.83
2024-01-06T06:40:50.886Z,89.80
2024-01-06T06:43:21.499Z,89.96
2024-01-06T06:45:52.107Z,90.07
2024-01-06T06:48:23.879Z,89.69
2024-01-06T06:50:54.365Z,89.85
2024-01-06T06:53:24.938Z,89.90
2024-01-06T06:55:55.490Z,90.00
2024-01-06T06:58:26.176Z,89.95
2024-01-06T07:00:56.788Z,89.74
2024-01-06T07:03:28.004Z,89.98
2024-01-06T07:05:58.747Z,89.72
2024-01-06T07:08:29.467Z,89.99
2024-01-06T07:11:00.074Z,90.03
2024-01-06T07:13:30.563Z,89.85
2024-01-06T07:16:11.552Z,89.82
2024-01-06T07:18:34.084Z,90.18
2024-01-06T07:21:07.544Z,90.24
2024-01-06T07:23:38.023Z,90.05
2024-01-06T07:26:09.211Z,90.30
2024-01-06T07:28:39.748Z,90.27
2024-01-06T07:31:10.404Z,90.36
2024-01-06T07:33:41.218Z,90.66
2024-01-06T07:36:11.854Z,90.60
2024-01-06T07:38:42.503Z,90.52
2024-01-06T07:41:13.366Z,90.69
2024-01-06T07:43:43.832Z,90.65
2024-01-06T07:46:15.656Z,90.70
2024-01-06T07:48:46.902Z,90.73
2024-01-06T07:51:18.167Z,90.45
2024-01-06T07:53:49.010Z,90.61
2024-01-06T07:56:19.668Z,90.14
2024-01-06T07:58:50.345Z,89.85
2024-01-06T08:01:20.991Z,89.96
2024-01-06T08:03:51.695Z,90.28
2024-01-06T08:06:22.726Z,89.93
2024-01-06T08:08:53.369Z,89.79
2024-01-06T08:11:26.813Z,90.44
2024-01-06T08:13:57.369Z,90.32
2024-01-06T08:16:28.035Z,90.38
2024-01-06T08:18:58.699Z,90.55
2024-01-06T08:21:29.474Z,90.65
2024-01-06T08:24:00.049Z,90.55
2024-01-06T08:26:30.765Z,90.03
2024-01-06T08:29:01.487Z,90.10
2024-01-06T08:31:32.071Z,90.28
2024-01-06T08:34:03.172Z,89.81
2024-01-06T08:36:34.019Z,89.95
2024-01-06T08:39:04.983Z,90.02
2024-01-06T08:41:35.570Z,90.09
2024-01-06T08:44:12.830Z,89.97
2024-01-06T08:46:43.398Z,89.66
2024-01-06T08:49:14.139Z,89.87
2024-01-06T08:51:45.282Z,89.38
2024-01-06T08:54:16.002Z,89.85
2024-01-06T08:56:46.760Z,89.74
2024-01-06T08:59:17.347Z,89.65
2024-01-06T09:01:50.266Z,89.60
2024-01-06T09:04:20.186Z,89.64
2024-01-06T09:06:51.859Z,89.61
2024-01-06T09:09:25.608Z,89.48
2024-01-06T09:11:56.358Z,89.01
2024-01-06T09:14:31.429Z,88.49
2024-01-06T09:17:02.950Z,88.94
2024-01-06T09:19:33.533Z,89.12
2024-01-06T09:22:04.219Z,89.06
2024-01-06T09:24:34.826Z,89.12
2024-01-06T09:27:05.530Z,89.00
2024-01-06T09:29:36.111Z,88.90
2024-01-06T09:32:06.761Z,88.59
2024-01-06T09:34:40.000Z,88.37
2024-01-06T09:37:09.380Z,88.36
2024-01-06T09:39:40.674Z,88.56
2024-01-06T09:42:12.511Z,88.64
2024-01-06T09:44:43.367Z,88.46
2024-01-06T09:47:14.709Z,88.88
2024-01-06T09:49:51.357Z,88.46
2024-01-06T09:52:24.349Z,88.37
2024-01-06T09:54:56.936Z,88.43
2024-01-06T09:57:28.504Z,88.38
2024-01-06T10:00:00.582Z,88.38
2024-01-06T10:02:32.733Z,88.23
2024-01-06T10:05:03.852Z,88.47
2024-01-06T10:07:34.948Z,88.36
2024-01-06T10:10:06.426Z,88.49
2024-01-06T10:12:41.844Z,88.62
2024-01-06T10:15:13.498Z,88.36
2024-01-06T10:17:44.380Z,88.08
2024-01-06T10:20:16.509Z,88.11
2024-01-06T10:22:47.772Z,88.39
2024-01-06T10:25:19.400Z,88.16
2024-01-06T10:27:50.016Z,87.42
2024-01-06T10:30:21.590Z,87.58
2024-01-06T10:32:52.479Z,87.45
2024-01-06T10:35:23.071Z,87.64
2024-01-06T10:37:55.877Z,87.88
2024-01-06T10:40:26.620Z,87.84
2024-01-06T10:42:59.027Z,88.20
2024-01-06T10:45:35.040Z,87.98
2024-01-06T10:48:07.957Z,87.61
2024-01-06T10:50:39.166Z,87.84
2024-01-06T10:53:11.044Z,87.49
2024-01-06T10:55:42.159Z,87.64
2024-01-06T10:58:15.058Z,87.48
2024-01-06T11:00:45.682Z,86.95
2024-01-06T11:03:16.639Z,87.57
2024-01-06T11:05:47.424Z,87.64
2024-01-06T11:08:21.388Z,87.74
2024-01-06T11:10:52.189Z,87.69
2024-01-06T11:13:26.512Z,87.58
2024-01-06T11:15:57.145Z,87.92
2024-01-06T11:18:39.854Z,87.56
2024-01-06T11:21:26.901Z,87.60
2024-01-06T11:24:12.560Z,87.76
2024-01-06T11:26:45.445Z,87.50
2024-01-06T11:29:16.144Z,87.40
2024-01-06T11:32:06.379Z,87.20
2024-01-06T11:34:39.210Z,87.29
2024-01-06T11:37:11.899Z,87.35
2024-01-06T11:39:46.218Z,87.59
2024-01-06T11:42:16.686Z,87.47
2024-01-06T11:44:49.111Z,87.36
2024-01-06T11:47:21.883Z,87.62
2024-01-06T11:49:56.194Z,87.70
2024-01-06T11:52:26.792Z,87.48
2024-01-06T11:54:58.620Z,87.44
2024-01-06T11:57:31.369Z,87.20
2024-01-06T12:00:04.991Z,87.24
2024-01-06T12:02:38.115Z,86.83
2024-01-06T12:05:21.512Z,87.19
2024-01-06T12:07:59.110Z,86.79
2024-01-06T12:10:31.345Z,87.08
2024-01-06T12:13:06.689Z,87.09
2024-01-06T12:15:39.863Z,87.11
2024-01-06T12:18:11.280Z,87.09
2024-01-06T12:20:43.936Z,87.07
2024-01-06T12:23:17.416Z,86.60
2024-01-06T12:25:50.762Z,86.87
2024-01-06T12:28:21.749Z,86.53
2024-01-06T12:30:52.518Z,86.35
2024-01-06T12:33:23.792Z,86.31
2024-01-06T12:35:54.749Z,86.26
2024-01-06T12:38:27.896Z,86.31
2024-01-06T12:40:58.555Z,86.33
2024-01-06T12:43:29.211Z,86.40
2024-01-06T12:46:00.556Z,86.36
2024-01-06T12:48:31.172Z,86.00
2024-01-06T12:51:01.662Z,86.24
2024-01-06T12:53:32.281Z,86.04
2024-01-06T12:56:03.182Z,85.88
2024-01-06T12:58:34.441Z,86.15
2024-01-06T13:01:05.328Z,86.07
2024-01-06T13:03:36.419Z,85.94
2024-01-06T13:06:09.070Z,86.00
2024-01-06T13:08:40.868Z,85.88
2024-01-06T13:11:11.759Z,86.07
2024-01-06T13:13:43.507Z,85.82
2024-01-06T13:16:14.024Z,85.67
2024-01-06T13:18:45.722Z,85.85
2024-01-06T13:21:18.703Z,85.95
2024-01-06T13:23:49.345Z,85.53
2024-01-06T13:26:20.037Z,85.67
2024-01-06T13:28:50.550Z,85.51
2024-01-06T13:31:21.919Z,85.49
2024-01-06T13:33:54.364Z,85.69
2024-01-06T13:36:25.582Z,85.55
2024-01-06T13:38:56.460Z,85.26
2024-01-06T13:41:27.833Z,85.35
2024-01-06T13:44:00.820Z,85.40
2024-01-06T13:46:31.375Z,85.03
2024-01-06T13:49:03.214Z,85.48
2024-01-06T13:51:33.921Z,85.64
2024-01-06T13:54:04.523Z,85.71
2024-01-06T13:56:35.258Z,85.62
2024-01-06T13:59:07.154Z,85.72
2024-01-06T14:01:37.866Z,86.15
2024-01-06T14:04:09.002Z,86.21
2024-01-06T14:06:41.164Z,86.26
2024-01-06T14:09:12.989Z,85.69
2024-01-06T14:11:44.072Z,85.18
2024-01-06T14:14:14.683Z,85.38
2024-01-06T14:16:47.022Z,85.30
2024-01-06T14:19:17.622Z,85.44
2024-01-06T14:21:48.370Z,85.39
2024-01-06T14:24:23.611Z,85.20
2024-01-06T14:26:56.877Z,85.17
2024-01-06T14:29:27.556Z,85.26
2024-01-06T14:31:58.701Z,84.66
2024-01-06T14:34:29.763Z,85.09
2024-01-06T14:37:00.396Z,85.00
2024-01-06T14:39:31.106Z,84.95
2024-01-06T14:42:01.601Z,85.01
2024-01-06T14:44:35.494Z,84.93
2024-01-06T14:47:07.748Z,84.97
2024-01-06T14:49:38.447Z,84.48
2024-01-06T14:52:09.269Z,84.39
2024-01-06T14:54:40.299Z,84.49
2024-01-06T14:57:10.835Z,84.32
2024-01-06T14:59:41.457Z,84.44
2024-01-06T15:02:12.151Z,84.61
2024-01-06T15:04:42.817Z,84.35
2024-01-06T15:07:13.548Z,84.34
2024-01-06T15:09:44.569Z,84.06
2024-01-06T15:12:15.127Z,83.87
2024-01-06T15:14:45.728Z,83.44
2024-01-06T15:17:16.333Z,83.61
2024-01-06T15:19:50.278Z,83.48
2024-01-06T15:22:21.081Z,83.72
2024-01-06T15:24:57.496Z,84.04
2024-01-06T15:27:24.134Z,83.95
2024-01-06T15:29:54.603Z,84.16
2024-01-06T15:32:25.110Z,83.88
2024-01-06T15:34:55.669Z,83.70
2024-01-06T15:37:26.340Z,84.05
2024-01-06T15:39:56.863Z,83.88
2024-01-06T15:42:27.988Z,83.87
2024-01-06T15:44:58.490Z,83.62
2024-01-06T15:47:29.121Z,83.92
2024-01-06T15:49:59.644Z,83.96
2024-01-06T15:52:30.199Z,83.58
2024-01-06T15:55:00.819Z,83.66
2024-01-06T15:57:33.200Z,83.94
2024-01-06T16:00:05.563Z,83.65
2024-01-06T16:02:37.788Z,84.05
2024-01-06T16:05:09.857Z,83.84
2024-01-06T16:07:40.754Z,83.98
2024-01-06T16:10:12.241Z,83.43
2024-01-06T16:12:43.297Z,83.80
2024-01-06T16:15:14.053Z,83.78
2024-01-06T16:17:44.702Z,83.48
2024-01-06T16:20:15.562Z,83.59
2024-01-06T16:22:47.411Z,83.49
2024-01-06T16:25:18.122Z,83.58
2024-01-06T16:27:48.811Z,83.24
2024-01-06T16:30:19.709Z,83.30
2024-01-06T16:32:52.678Z,83.17
2024-01-06T16:35:23.223Z,83.40
2024-01-06T16:37:54.735Z,83.02
2024-01-06T16:40:25.443Z,82.94
2024-01-06T16:42:56.162Z,82.23
2024-01-06T16:45:28.065Z,82.31
2024-01-06T16:47:59.087Z,82.20
2024-01-06T16:50:29.628Z,82.31
2024-01-06T16:53:00.145Z,82.09
2024-01-06T16:55:31.029Z,82.36
2024-01-06T16:58:02.336Z,82.06
2024-01-06T17:00:32.878Z,82.08
2024-01-06T17:03:03.442Z,82.28
2024-01-06T17:05:34.210Z,82.17
2024-01-06T17:08:04.998Z,82.08
2024-01-06T17:10:35.564Z,82.23
2024-01-06T17:13:07.117Z,82.06
2024-01-06T17:15:39.209Z,82.09
2024-01-06T17:18:09.739Z,82.06
2024-01-06T17:20:40.627Z,81.86
2024-01-06T17:23:13.513Z,82.39
2024-01-06T17:25:44.400Z,81.83
2024-01-06T17:28:15.756Z,82.17
2024-01-06T17:30:46.376Z,82.13
2024-01-06T17:33:17.185Z,82.18
2024-01-06T17:35:47.878Z,82.32
2024-01-06T17:38:18.399Z,82.32
2024-01-06T17:40:48.952Z,81.84
2024-01-06T17:43:20.939Z,81.98
2024-01-06T17:45:51.505Z,81.84
2024-01-06T17:48:22.742Z,81.59
2024-01-06T17:50:53.394Z,81.75
2024-01-06T17:53:24.137Z,81.78
2024-01-06T17:55:54.773Z,82.03
2024-01-06T17:58:25.592Z,81.93
2024-01-06T18:00:58.453Z,81.99
2024-01-06T18:03:29.289Z,82.10
2024-01-06T18:05:59.840Z,82.22
2024-01-06T18:08:30.939Z,81.98
2024-01-06T18:11:03.054Z,82.22
2024-01-06T18:13:35.041Z,82.53
2024-01-06T18:16:07.268Z,82.20
2024-01-06T18:18:38.037Z,82.91
2024-01-06T18:21:09.913Z,81.72
2024-01-06T18:23:40.431Z,81.32
2024-01-06T18:26:11.366Z,81.53
2024-01-06T18:28:42.040Z,81.57
2024-01-06T18:31:12.721Z,81.32
2024-01-06T18:33:43.721Z,81.23
2024-01-06T18:36:14.557Z,81.31
2024-01-06T18:38:45.153Z,81.78
2024-01-06T18:41:15.665Z,81.68
2024-01-06T18:43:46.407Z,81.50
2024-01-06T18:46:17.276Z,81.59
2024-01-06T18:48:49.881Z,81.68
2024-01-06T18:51:23.068Z,81.73
2024-01-06T18:53:54.170Z,81.82
2024-01-06T18:56:26.504Z,81.73
2024-01-06T18:58:57.094Z,81.88
2024-01-06T19:01:28.119Z,82.07
2024-01-06T19:03:59.078Z,82.16
2024-01-06T19:06:31.016Z,81.72
2024-01-06T19:09:01.549Z,81.39
2024-01-06T19:11:33.593Z,81.38
2024-01-06T19:14:04.336Z,81.04
2024-01-06T19:16:37.377Z,80.93
2024-01-06T19:19:09.180Z,80.78
2024-01-06T19:21:41.227Z,80.45
2024-01-06T19:24:19.926Z,80.42
2024-01-06T19:26:45.093Z,80.00
2024-01-06T19:29:17.114Z,79.22
2024-01-06T19:31:47.939Z,79.93
2024-01-06T19:34:19.964Z,79.37
2024-01-06T19:36:51.296Z,79.42
2024-01-06T19:39:23.873Z,79.41
2024-01-06T19:41:54.688Z,79.56
2024-01-06T19:44:25.249Z,78.91
2024-01-06T19:46:57.362Z,79.01
2024-01-06T19:49:28.128Z,79.14
2024-01-06T19:51:58.837Z,78.87
2024-01-06T19:54:31.460Z,78.82
2024-01-06T19:57:02.332Z,78.70
2024-01-06T19:59:34.787Z,78.68
2024-01-06T20:02:07.092Z,78.57
2024-01-06T20:04:39.261Z,77.78
2024-01-06T20:07:09.867Z,78.24
2024-01-06T20:09:43.045Z,78.34
2024-01-06T20:12:14.430Z,79.01
2024-01-06T20:14:47.222Z,79.76
2024-01-06T20:17:18.034Z,80.18
2024-01-06T20:19:49.592Z,80.35
2024-01-06T20:22:20.118Z,80.73
2024-01-06T20:24:50.997Z,81.04
2024-01-06T20:27:23.138Z,81.14
2024-01-06T20:29:54.367Z,81.45
2024-01-06T20:32:25.265Z,81.72
2024-01-06T20:34:56.937Z,82.00
2024-01-06T20:37:27.707Z,82.43
2024-01-06T20:39:58.385Z,83.40
2024-01-06T20:42:30.540Z,84.25
2024-01-06T20:45:01.022Z,85.06
2024-01-06T20:47:33.813Z,85.45
2024-01-06T20:50:04.498Z,85.44
2024-01-06T20:52:35.097Z,85.44
2024-01-06T20:55:06.060Z,85.29
2024-01-06T20:57:36.677Z,85.47
2024-01-06T21:00:08.165Z,85.31
2024-01-06T21:02:38.637Z,85.26
2024-01-06T21:05:10.669Z,85.20
2024-01-06T21:07:42.552Z,83.95
2024-01-06T21:10:13.313Z,83.40
2024-01-06T21:12:44.142Z,82.89
2024-01-06T21:15:16.460Z,81.60
2024-01-06T21:17:47.014Z,81.25
2024-01-06T21:20:17.635Z,80.28
2024-01-06T21:22:48.129Z,79.91
2024-01-06T21:25:24.332Z,79.82
2024-01-06T21:27:54.969Z,79.23
2024-01-06T21:30:27.147Z,79.39
2024-01-06T21:32:59.554Z,79.83
2024-01-06T21:35:31.208Z,79.44
2024-01-06T21:38:04.404Z,77.96
2024-01-06T21:40:34.883Z,77.60
2024-01-06T21:43:06.494Z,76.92
2024-01-06T21:45:37.173Z,76.89
2024-01-06T21:48:08.030Z,76.01
2024-01-06T21:50:38.593Z,76.40
2024-01-06T21:53:09.963Z,76.32
2024-01-06T21:55:40.505Z,75.89
2024-01-06T21:58:11.906Z,75.93
2024-01-06T22:00:43.106Z,76.20
2024-01-06T22:03:13.727Z,75.67
2024-01-06T22:05:44.427Z,75.62
2024-01-06T22:08:14.992Z,75.32
2024-01-06T22:10:45.453Z,75.62
2024-01-06T22:13:15.947Z,75.78
2024-01-06T22:15:46.474Z,75.06
2024-01-06T22:18:17.148Z,75.33
2024-01-06T22:20:47.646Z,74.79
2024-01-06T22:23:18.191Z,74.77
2024-01-06T22:25:48.742Z,74.80
2024-01-06T22:28:19.353Z,74.82
2024-01-06T22:30:49.926Z,74.89
2024-01-06T22:33:20.479Z,74.91
2024-01-06T22:35:51.111Z,74.74
2024-01-06T22:38:21.843Z,74.39
2024-01-06T22:40:52.414Z,74.68
2024-01-06T22:43:23.188Z,74.13
2024-01-06T22:45:53.687Z,73.93
2024-01-06T22:48:24.987Z,74.05
2024-01-06T22:50:55.510Z,74.64
2024-01-06T22:53:26.183Z,74.49
2024-01-06T22:55:56.821Z,73.87
2024-01-06T22:58:28.122Z,74.29
2024-01-06T23:00:59.555Z,74.20
2024-01-06T23:03:30.282Z,73.84
2024-01-06T23:06:00.841Z,73.81
2024-01-06T23:08:31.304Z,73.90
2024-01-06T23:11:02.054Z,73.93
2024-01-06T23:13:33.669Z,73.93
2024-01-06T23:16:04.767Z,73.90
2024-01-06T23:18:35.550Z,73.99
2024-01-06T23:21:06.543Z,74.24
2024-01-06T23:23:40.066Z,74.03
2024-01-06T23:26:10.895Z,74.17
2024-01-06T23:28:41.746Z,74.17
2024-01-06T23:31:12.354Z,74.14
2024-01-06T23:33:43.070Z,74.38
2024-01-06T23:36:13.608Z,74.26
2024-01-06T23:38:44.156Z,74.10
2024-01-06T23:41:15.584Z,74.35
2024-01-06T23:43:46.457Z,75.02
2024-01-06T23:46:16.945Z,73.89
2024-01-06T23:48:47.510Z,73.10
2024-01-06T23:51:18.953Z,73.44
2024-01-06T23:53:52.353Z,73.76
2024-01-06T23:56:21.518Z,73.97
2024-01-06T23:58:51.997Z,73.94
